createdAt,value
2022-08-21T04:31:10.317Z,26.10
2022-08-21T04:32:10.308Z,23.10
2022-08-21T04:33:10.286Z,24.60
2022-08-21T04:34:10.290Z,24.30
2022-08-21T04:35:10.246Z,25.40
2022-08-21T04:36:10.256Z,29.30
2022-08-21T04:37:10.236Z,25.10
2022-08-21T04:38:10.216Z,22.40
2022-08-21T04:39:10.257Z,29.00
2022-08-21T04:40:10.247Z,25.90
2022-08-21T04:41:10.186Z,28.90
2022-08-21T04:42:10.166Z,28.20
2022-08-21T04:43:10.166Z,27.40
2022-08-21T04:45:05.582Z,26.00
2022-08-21T04:46:05.582Z,25.30
2022-08-21T04:47:05.532Z,26.50
2022-08-21T04:48:05.530Z,28.50
2022-08-21T04:49:05.491Z,31.10
2022-08-21T04:50:05.482Z,32.40
2022-08-21T04:51:05.512Z,26.20
2022-08-21T04:52:05.497Z,33.00
2022-08-21T04:53:05.503Z,30.60
2022-08-21T04:54:05.512Z,29.40
2022-08-21T04:55:05.423Z,28.60
2022-08-21T04:56:05.413Z,28.30
2022-08-21T04:57:05.411Z,23.40
2022-08-21T04:58:05.472Z,21.60
2022-08-21T04:59:05.382Z,20.00
2022-08-21T05:00:05.401Z,16.50
2022-08-21T05:01:05.502Z,16.50
2022-08-21T05:02:05.541Z,14.60
2022-08-21T05:03:05.341Z,11.70
2022-08-21T05:04:05.388Z,12.80
2022-08-21T05:05:05.321Z,11.80
2022-08-21T05:06:05.280Z,14.60
2022-08-21T05:07:05.304Z,10.20
2022-08-21T05:08:05.257Z,11.20
2022-08-21T05:09:05.274Z,13.20
2022-08-21T05:10:05.239Z,13.30
2022-08-21T05:11:05.239Z,12.20
2022-08-21T05:12:05.282Z,11.70
2022-08-21T05:13:05.180Z,11.20
2022-08-21T05:14:05.170Z,11.30
2022-08-21T05:15:05.152Z,15.10
2022-08-21T05:16:05.150Z,12.90
2022-08-21T05:17:05.371Z,11.40
2022-08-21T05:18:05.120Z,10.30
2022-08-21T05:19:05.102Z,9.80
2022-08-21T05:20:05.138Z,12.50
2022-08-21T05:21:05.093Z,10.70
2022-08-21T05:22:05.093Z,12.60
2022-08-21T05:23:05.100Z,11.60
2022-08-21T05:24:05.079Z,16.80
2022-08-21T05:25:10.092Z,15.10
2022-08-21T05:26:06.030Z,15.70
2022-08-21T05:27:05.069Z,12.30
2022-08-21T05:28:04.998Z,12.60
2022-08-21T05:29:04.997Z,12.80
2022-08-21T05:30:04.971Z,9.60
2022-08-21T05:31:04.959Z,11.90
2022-08-21T05:32:05.141Z,12.70
2022-08-21T05:33:04.947Z,10.50
2022-08-21T05:34:04.921Z,11.80
2022-08-21T05:35:04.911Z,11.60
2022-08-21T05:36:04.888Z,10.30
2022-08-21T05:37:07.667Z,14.00
2022-08-21T05:38:04.869Z,14.70
2022-08-21T05:39:04.860Z,11.40
2022-08-21T05:40:22.440Z,13.80
2022-08-21T05:41:05.940Z,16.10
2022-08-21T05:42:04.828Z,13.80
2022-08-21T05:43:04.800Z,12.70
2022-08-21T05:44:04.779Z,17.90
2022-08-21T05:45:05.776Z,23.00
2022-08-21T05:46:04.764Z,15.40
2022-08-21T05:47:04.776Z,12.90
2022-08-21T05:48:04.739Z,17.70
2022-08-21T05:49:04.721Z,12.50
2022-08-21T05:50:04.708Z,17.20
2022-08-21T05:51:04.689Z,13.80
2022-08-21T05:52:04.678Z,13.70
2022-08-21T05:53:04.679Z,17.00
2022-08-21T05:54:04.649Z,14.60
2022-08-21T05:55:04.647Z,12.50
2022-08-21T05:56:04.628Z,13.20
2022-08-21T05:57:04.630Z,17.00
2022-08-21T05:58:04.639Z,16.30
2022-08-21T05:59:04.607Z,12.80
2022-08-21T06:00:04.583Z,13.80
2022-08-21T06:01:04.572Z,14.30
2022-08-21T06:02:05.868Z,13.30
2022-08-21T06:03:04.538Z,12.00
2022-08-21T06:04:04.508Z,16.50
2022-08-21T06:05:04.531Z,12.90
2022-08-21T06:06:04.490Z,16.10
2022-08-21T06:07:04.479Z,11.70
2022-08-21T06:08:04.472Z,12.10
2022-08-21T06:09:04.458Z,16.60
2022-08-21T06:10:04.436Z,15.40
2022-08-21T06:11:04.518Z,12.50
2022-08-21T06:12:04.408Z,13.60
2022-08-21T06:13:04.418Z,13.80
2022-08-21T06:14:04.388Z,14.20
2022-08-21T06:15:04.388Z,12.40
2022-08-21T06:16:04.349Z,15.20
2022-08-21T06:17:04.379Z,14.90
2022-08-21T06:18:04.337Z,13.90
2022-08-21T06:19:04.317Z,15.70
2022-08-21T06:20:04.310Z,12.90
2022-08-21T06:21:04.287Z,16.10
2022-08-21T06:22:04.276Z,14.70
2022-08-21T06:23:04.290Z,12.60
2022-08-21T06:24:04.267Z,14.00
2022-08-21T06:25:04.237Z,15.70
2022-08-21T06:26:04.245Z,13.20
2022-08-21T06:27:04.228Z,14.80
2022-08-21T06:28:04.207Z,13.60
2022-08-21T06:29:04.198Z,11.70
2022-08-21T06:30:04.177Z,11.10
2022-08-21T06:31:04.158Z,16.20
2022-08-21T06:32:04.166Z,16.10
2022-08-21T06:33:04.149Z,12.70
2022-08-21T06:34:04.137Z,12.10
2022-08-21T06:35:04.118Z,15.10
2022-08-21T06:36:04.096Z,11.20
2022-08-21T06:37:04.087Z,11.40
2022-08-21T06:38:04.086Z,13.40
2022-08-21T06:39:06.681Z,14.60
2022-08-21T06:40:05.095Z,11.50
2022-08-21T06:41:04.231Z,9.60
2022-08-21T06:42:04.018Z,14.90
2022-08-21T06:43:05.017Z,13.80
2022-08-21T06:44:03.989Z,10.80
2022-08-21T06:45:03.981Z,17.70
2022-08-21T06:46:04.038Z,11.50
2022-08-21T06:47:03.957Z,11.70
2022-08-21T06:48:03.957Z,14.60
2022-08-21T06:49:03.957Z,14.10
2022-08-21T06:50:03.925Z,14.60
2022-08-21T06:51:03.927Z,11.90
2022-08-21T06:52:03.899Z,10.80
2022-08-21T06:53:03.929Z,18.00
2022-08-21T06:54:03.926Z,12.10
2022-08-21T06:55:03.858Z,12.10
2022-08-21T06:56:03.847Z,13.30
2022-08-21T06:57:03.868Z,13.10
2022-08-21T06:58:03.851Z,13.30
2022-08-21T06:59:03.827Z,15.80
2022-08-21T07:00:03.789Z,13.60
2022-08-21T07:01:03.826Z,11.40
2022-08-21T07:02:03.865Z,14.50
2022-08-21T07:03:03.767Z,16.50
2022-08-21T07:04:03.727Z,16.00
2022-08-21T07:05:17.715Z,17.70
2022-08-21T07:06:04.706Z,16.10
2022-08-21T07:07:03.706Z,12.90
2022-08-21T07:08:03.696Z,15.10
2022-08-21T07:09:03.687Z,13.90
2022-08-21T07:10:03.670Z,16.30
2022-08-21T07:11:03.638Z,14.10
2022-08-21T07:12:03.631Z,17.10
2022-08-21T07:13:03.890Z,15.90
2022-08-21T07:14:03.598Z,17.20
2022-08-21T07:15:03.598Z,18.80
2022-08-21T07:16:04.422Z,16.40
2022-08-21T07:17:03.564Z,16.30
2022-08-21T07:18:03.617Z,15.10
2022-08-21T07:19:03.538Z,17.30
2022-08-21T07:20:03.527Z,13.90
2022-08-21T07:21:03.517Z,17.60
2022-08-21T07:22:03.554Z,19.00
2022-08-21T07:23:03.508Z,16.60
2022-08-21T07:24:03.476Z,17.50
2022-08-21T07:25:03.522Z,17.70
2022-08-21T07:26:03.457Z,17.90
2022-08-21T07:27:07.040Z,16.90
2022-08-21T07:28:04.428Z,18.70
2022-08-21T07:29:03.417Z,20.80
2022-08-21T07:30:03.390Z,16.60
2022-08-21T07:31:03.394Z,17.70
2022-08-21T07:32:03.384Z,21.10
2022-08-21T07:33:03.387Z,18.20
2022-08-21T07:34:03.361Z,17.10
2022-08-21T07:35:03.397Z,19.40
2022-08-21T07:36:03.318Z,16.40
2022-08-21T07:37:06.301Z,21.90
2022-08-21T07:38:04.306Z,19.60
2022-08-21T07:39:03.277Z,15.40
2022-08-21T07:40:03.332Z,20.30
2022-08-21T07:41:03.259Z,16.90
2022-08-21T07:42:08.041Z,22.60
2022-08-21T07:43:04.238Z,20.90
2022-08-21T07:44:03.238Z,16.90
2022-08-21T07:45:03.211Z,17.20
2022-08-21T07:46:03.218Z,17.80
2022-08-21T07:47:03.233Z,23.90
2022-08-21T07:48:03.167Z,17.00
2022-08-21T07:49:03.159Z,17.30
2022-08-21T07:50:03.138Z,15.90
2022-08-21T07:51:03.127Z,16.50
2022-08-21T07:52:03.118Z,17.40
2022-08-21T07:53:03.098Z,18.70
2022-08-21T07:54:03.102Z,13.60
2022-08-21T07:55:06.420Z,16.90
2022-08-21T07:56:03.098Z,15.00
2022-08-21T07:57:03.050Z,17.30
2022-08-21T07:58:03.038Z,17.60
2022-08-21T07:59:03.036Z,14.30
2022-08-21T08:00:03.027Z,15.30
2022-08-21T08:01:03.048Z,13.80
2022-08-21T08:02:03.001Z,16.40
2022-08-21T08:03:02.991Z,15.60
2022-08-21T08:04:02.958Z,16.00
2022-08-21T08:05:02.948Z,17.30
2022-08-21T08:06:02.938Z,16.70
2022-08-21T08:07:02.927Z,14.10
2022-08-21T08:08:02.918Z,13.70
2022-08-21T08:09:02.889Z,20.80
2022-08-21T08:10:02.880Z,18.00
2022-08-21T08:11:02.873Z,13.30
2022-08-21T08:12:02.861Z,20.00
2022-08-21T08:13:02.880Z,17.60
2022-08-21T08:14:02.831Z,18.70
2022-08-21T08:15:02.824Z,19.00
2022-08-21T08:16:02.847Z,17.10
2022-08-21T08:17:02.806Z,15.70
2022-08-21T08:18:02.870Z,19.80
2022-08-21T08:19:02.819Z,14.90
2022-08-21T08:20:02.792Z,14.30
2022-08-21T08:21:02.750Z,14.40
2022-08-21T08:22:02.730Z,19.20
2022-08-21T08:23:03.039Z,14.40
2022-08-21T08:24:18.952Z,15.40
2022-08-21T08:25:08.745Z,17.60
2022-08-21T08:26:03.670Z,15.90
2022-08-21T08:27:02.658Z,14.50
2022-08-21T08:28:02.639Z,13.10
2022-08-21T08:29:02.671Z,17.40
2022-08-21T08:30:02.619Z,14.10
2022-08-21T08:31:02.599Z,13.10
2022-08-21T08:32:02.589Z,12.10
2022-08-21T08:33:02.581Z,14.70
2022-08-21T08:34:02.600Z,16.60
2022-08-21T08:35:02.549Z,13.10
2022-08-21T08:36:06.553Z,11.70
2022-08-21T08:37:03.530Z,15.00
2022-08-21T08:38:02.520Z,16.80
2022-08-21T08:39:02.530Z,11.50
2022-08-21T08:40:04.502Z,12.30
2022-08-21T08:41:02.470Z,12.90
2022-08-21T08:42:02.460Z,10.90
2022-08-21T08:43:02.440Z,11.60
2022-08-21T08:44:02.459Z,8.10
2022-08-21T08:45:02.419Z,15.80
2022-08-21T08:46:02.409Z,9.70
2022-08-21T08:47:02.392Z,11.90
2022-08-21T08:48:02.380Z,9.20
2022-08-21T08:49:02.380Z,8.10
2022-08-21T08:50:02.358Z,11.20
2022-08-21T08:51:02.341Z,12.10
2022-08-21T08:52:02.330Z,7.60
2022-08-21T08:53:02.310Z,9.90
2022-08-21T08:54:02.310Z,11.60
2022-08-21T08:55:02.289Z,11.60
2022-08-21T08:56:02.280Z,11.00
2022-08-21T08:57:02.265Z,6.10
2022-08-21T08:58:02.250Z,10.50
2022-08-21T08:59:02.251Z,7.00
2022-08-21T09:00:02.585Z,10.30
2022-08-21T09:01:02.283Z,7.70
2022-08-21T09:02:02.201Z,9.00
2022-08-21T09:03:02.206Z,5.40
2022-08-21T09:04:02.181Z,9.10
2022-08-21T09:05:02.175Z,9.80
2022-08-21T09:06:02.150Z,9.80
2022-08-21T09:07:02.134Z,11.10
2022-08-21T09:08:02.125Z,9.20
2022-08-21T09:09:02.114Z,6.70
2022-08-21T09:10:02.093Z,7.60
2022-08-21T09:11:02.082Z,7.70
2022-08-21T09:12:02.071Z,6.90
2022-08-21T09:13:02.071Z,7.10
2022-08-21T09:14:02.072Z,7.10
2022-08-21T09:15:02.031Z,7.80
2022-08-21T09:16:02.121Z,6.60
2022-08-21T09:17:02.002Z,9.00
2022-08-21T09:18:01.993Z,6.90
2022-08-21T09:19:02.993Z,8.80
2022-08-21T09:20:01.971Z,6.60
2022-08-21T09:21:01.951Z,5.90
2022-08-21T09:22:01.963Z,9.10
2022-08-21T09:23:01.921Z,7.30
2022-08-21T09:24:01.930Z,7.60
2022-08-21T09:25:01.905Z,6.70
2022-08-21T09:26:01.894Z,6.00
2022-08-21T09:27:01.882Z,5.60
2022-08-21T09:28:01.862Z,9.30
2022-08-21T09:29:01.862Z,8.30
2022-08-21T09:30:01.853Z,4.90
2022-08-21T09:31:01.820Z,5.40
2022-08-21T09:32:01.822Z,6.00
2022-08-21T09:33:01.793Z,8.60
2022-08-21T09:34:01.816Z,5.90
2022-08-21T09:35:01.780Z,11.00
2022-08-21T09:36:01.784Z,9.10
2022-08-21T09:37:01.742Z,9.00
2022-08-21T09:38:01.743Z,8.10
2022-08-21T09:39:01.734Z,8.50
2022-08-21T09:40:01.748Z,6.30
2022-08-21T09:41:01.693Z,8.00
2022-08-21T09:42:01.723Z,10.40
2022-08-21T09:43:01.673Z,10.00
2022-08-21T09:44:01.683Z,7.30
2022-08-21T09:45:01.692Z,7.30
2022-08-21T09:46:01.636Z,8.20
2022-08-21T09:47:01.622Z,6.90
2022-08-21T09:48:01.612Z,8.10
2022-08-21T09:49:02.059Z,11.50
2022-08-21T09:50:01.588Z,9.20
2022-08-21T09:51:01.574Z,11.10
2022-08-21T09:52:01.554Z,11.90
2022-08-21T09:53:01.547Z,8.70
2022-08-21T09:54:01.584Z,10.60
2022-08-21T09:55:01.515Z,7.10
2022-08-21T09:56:01.615Z,10.10
2022-08-21T09:57:01.505Z,9.10
2022-08-21T09:58:01.475Z,7.10
2022-08-21T09:59:01.485Z,9.50
2022-08-21T10:00:01.455Z,7.20
2022-08-21T10:01:01.521Z,6.50
2022-08-21T10:02:01.434Z,7.60
2022-08-21T10:03:01.425Z,8.20
2022-08-21T10:04:01.447Z,12.90
2022-08-21T10:05:01.398Z,8.40
2022-08-21T10:06:01.387Z,8.60
2022-08-21T10:07:01.366Z,7.70
2022-08-21T10:08:01.356Z,9.50
2022-08-21T10:09:01.366Z,9.50
2022-08-21T10:10:01.348Z,8.20
2022-08-21T10:11:01.317Z,5.80
2022-08-21T10:12:01.326Z,8.90
2022-08-21T10:13:01.349Z,7.50
2022-08-21T10:14:01.287Z,7.20
2022-08-21T10:15:02.082Z,8.00
2022-08-21T10:16:01.299Z,9.60
2022-08-21T10:17:01.280Z,8.60
2022-08-21T10:18:01.245Z,9.80
2022-08-21T10:19:01.228Z,7.80
2022-08-21T10:20:01.219Z,7.40
2022-08-21T10:21:01.191Z,8.70
2022-08-21T10:22:01.175Z,6.80
2022-08-21T10:23:02.343Z,5.30
2022-08-21T10:24:01.275Z,6.30
2022-08-21T10:25:01.238Z,7.70
2022-08-21T10:26:13.034Z,7.40
2022-08-21T10:27:02.118Z,5.40
2022-08-21T10:28:01.098Z,6.20
2022-08-21T10:29:01.090Z,4.50
2022-08-21T10:30:01.087Z,7.70
2022-08-21T10:31:01.071Z,7.10
2022-08-21T10:32:01.245Z,6.50
2022-08-21T10:33:01.044Z,6.40
2022-08-21T10:34:01.028Z,6.60
2022-08-21T10:35:01.031Z,12.40
2022-08-21T10:36:01.106Z,7.70
2022-08-21T10:37:04.164Z,9.60
2022-08-21T10:38:01.975Z,5.60
2022-08-21T10:39:25.865Z,3.60
2022-08-21T10:40:02.060Z,6.30
2022-08-21T10:41:00.941Z,8.60
2022-08-21T10:42:00.930Z,5.70
2022-08-21T10:43:00.935Z,7.50
2022-08-21T10:44:00.920Z,4.20
2022-08-21T10:45:07.961Z,7.70
2022-08-21T10:46:00.874Z,4.00
2022-08-21T10:47:00.891Z,5.70
2022-08-21T10:48:00.856Z,4.50
2022-08-21T10:49:00.844Z,3.90
2022-08-21T10:50:00.832Z,5.30
2022-08-21T10:51:00.812Z,5.00
2022-08-21T10:52:00.793Z,3.10
2022-08-21T10:53:00.991Z,6.00
2022-08-21T10:54:00.774Z,3.90
2022-08-21T10:55:00.783Z,2.40
2022-08-21T10:56:00.744Z,3.20
2022-08-21T10:57:00.808Z,3.50
2022-08-21T10:58:00.724Z,4.50
2022-08-21T10:59:00.713Z,3.00
2022-08-21T11:00:00.704Z,5.00
2022-08-21T11:01:00.761Z,7.50
2022-08-21T11:02:00.674Z,4.80
2022-08-21T11:03:00.719Z,3.40
2022-08-21T11:04:00.645Z,4.80
2022-08-21T11:05:00.654Z,6.00
2022-08-21T11:06:00.623Z,6.20
2022-08-21T11:07:00.616Z,3.50
2022-08-21T11:08:01.112Z,3.00
2022-08-21T11:09:00.599Z,4.40
2022-08-21T11:10:00.584Z,5.30
2022-08-21T11:11:00.586Z,6.50
2022-08-21T11:12:11.270Z,3.00
2022-08-21T11:13:01.542Z,2.90
2022-08-21T11:14:00.524Z,4.30
2022-08-21T11:15:00.525Z,2.60
2022-08-21T11:16:00.516Z,3.60
2022-08-21T11:17:00.497Z,5.20
2022-08-21T11:18:00.504Z,3.40
2022-08-21T11:19:00.466Z,4.50
2022-08-21T11:20:00.465Z,4.90
2022-08-21T11:21:00.448Z,3.70
2022-08-21T11:22:00.428Z,4.30
2022-08-21T11:23:03.824Z,3.70
2022-08-21T11:24:00.397Z,4.00
2022-08-21T11:25:00.587Z,4.00
2022-08-21T11:26:00.380Z,3.20
2022-08-21T11:27:00.376Z,5.40
2022-08-21T11:28:00.350Z,2.90
2022-08-21T11:29:00.346Z,3.20
2022-08-21T11:30:00.333Z,3.70
2022-08-21T11:31:00.338Z,3.30
2022-08-21T11:32:00.306Z,4.50
2022-08-21T11:33:00.614Z,3.00
2022-08-21T11:34:00.278Z,5.30
2022-08-21T11:35:00.277Z,3.60
2022-08-21T11:36:00.270Z,2.70
2022-08-21T11:37:00.248Z,3.80
2022-08-21T11:38:00.229Z,4.60
2022-08-21T11:39:00.228Z,1.90
2022-08-21T11:40:00.336Z,2.80
2022-08-21T11:41:00.209Z,3.50
2022-08-21T11:42:00.184Z,3.80
2022-08-21T11:43:00.318Z,3.90
2022-08-21T11:44:00.268Z,5.00
2022-08-21T11:45:00.151Z,4.20
2022-08-21T11:46:00.379Z,5.10
2022-08-21T11:47:00.120Z,3.90
2022-08-21T11:48:00.125Z,2.40
2022-08-21T11:49:00.105Z,2.80
2022-08-21T11:50:00.090Z,3.90
2022-08-21T11:51:00.087Z,3.90
2022-08-21T11:52:00.057Z,3.10
2022-08-21T11:53:00.146Z,3.50
2022-08-21T11:54:00.032Z,4.30
2022-08-21T11:55:00.081Z,3.70
2022-08-21T11:56:00.027Z,2.60
2022-08-21T11:56:59.992Z,4.70
2022-08-21T11:57:59.982Z,3.10
2022-08-21T11:58:59.973Z,4.30
2022-08-21T11:59:59.964Z,3.70
2022-08-21T12:00:59.963Z,2.20
2022-08-21T12:01:59.951Z,2.60
2022-08-21T12:03:00.055Z,3.10
2022-08-21T12:03:59.958Z,2.70
2022-08-21T12:04:59.909Z,2.30
2022-08-21T12:06:00.905Z,3.60
2022-08-21T12:06:59.888Z,4.10
2022-08-21T12:08:01.054Z,2.50
2022-08-21T12:08:59.855Z,2.60
2022-08-21T12:09:59.835Z,3.40
2022-08-21T12:10:59.853Z,4.00
2022-08-21T12:11:59.815Z,4.60
2022-08-21T12:12:59.909Z,2.10
2022-08-21T12:13:59.805Z,5.80
2022-08-21T12:14:59.792Z,1.70
2022-08-21T12:15:59.785Z,4.10
2022-08-21T12:16:59.776Z,4.80
2022-08-21T12:17:59.745Z,3.30
2022-08-21T12:18:59.748Z,4.10
2022-08-21T12:19:59.726Z,5.10
2022-08-21T12:20:59.729Z,2.90
2022-08-21T12:21:59.696Z,3.70
2022-08-21T12:22:59.766Z,3.40
2022-08-21T12:23:59.677Z,5.10
2022-08-21T12:24:59.669Z,3.00
2022-08-21T12:25:59.667Z,4.70
2022-08-21T12:26:59.638Z,5.50
2022-08-21T12:27:59.628Z,3.70
2022-08-21T12:28:59.630Z,3.60
2022-08-21T12:29:59.608Z,5.10
2022-08-21T12:30:59.618Z,3.00
2022-08-21T12:31:59.579Z,3.90
2022-08-21T12:32:59.804Z,8.00
2022-08-21T12:33:59.566Z,2.30
2022-08-21T12:34:59.570Z,5.50
2022-08-21T12:35:59.539Z,3.20
2022-08-21T12:36:59.527Z,3.60
2022-08-21T12:37:59.509Z,2.90
2022-08-21T12:38:59.499Z,4.20
2022-08-21T12:39:59.545Z,4.00
2022-08-21T12:40:59.500Z,3.20
2022-08-21T12:42:01.929Z,5.50
2022-08-21T12:42:59.482Z,3.00
2022-08-21T12:43:59.441Z,3.10
2022-08-21T12:44:59.431Z,3.60
2022-08-21T12:45:59.421Z,2.80
2022-08-21T12:46:59.408Z,2.50
2022-08-21T12:47:59.390Z,3.50
2022-08-21T12:48:59.384Z,3.80
2022-08-21T12:49:59.371Z,3.40
2022-08-21T12:50:59.478Z,5.90
2022-08-21T12:51:59.342Z,2.50
2022-08-21T12:52:59.469Z,4.90
2022-08-21T12:53:59.322Z,5.00
2022-08-21T12:54:59.312Z,3.90
2022-08-21T12:55:59.303Z,4.70
2022-08-21T12:56:59.282Z,3.40
2022-08-21T12:57:59.412Z,3.30
2022-08-21T12:58:59.304Z,8.80
2022-08-21T12:59:59.243Z,4.90
2022-08-21T13:00:59.254Z,5.10
2022-08-21T13:01:59.273Z,3.30
2022-08-21T13:02:59.377Z,3.40
2022-08-21T13:04:04.902Z,2.60
2022-08-21T13:05:00.195Z,2.20
2022-08-21T13:05:59.192Z,2.30
2022-08-21T13:06:59.175Z,3.70
2022-08-21T13:07:59.154Z,2.50
2022-08-21T13:08:59.159Z,2.60
2022-08-21T13:09:59.145Z,4.10
2022-08-21T13:10:59.135Z,3.00
2022-08-21T13:11:59.105Z,4.10
2022-08-21T13:12:59.270Z,2.80
2022-08-21T13:14:02.889Z,2.50
2022-08-21T13:15:00.086Z,4.10
2022-08-21T13:15:59.075Z,3.70
2022-08-21T13:16:59.128Z,3.40
2022-08-21T13:17:59.036Z,3.80
2022-08-21T13:18:59.027Z,2.90
2022-08-21T13:19:59.014Z,4.10
2022-08-21T13:20:59.017Z,2.90
2022-08-21T13:21:58.992Z,3.40
2022-08-21T13:22:59.098Z,4.10
2022-08-21T13:23:58.968Z,3.40
2022-08-21T13:24:58.960Z,3.40
2022-08-21T13:25:58.947Z,3.50
2022-08-21T13:26:58.933Z,3.70
2022-08-21T13:27:58.918Z,3.80
2022-08-21T13:28:58.908Z,6.30
2022-08-21T13:29:58.897Z,4.10
2022-08-21T13:30:58.909Z,4.10
2022-08-21T13:31:58.869Z,3.20
2022-08-21T13:32:58.983Z,4.10
2022-08-21T13:33:58.841Z,2.00
2022-08-21T13:34:58.839Z,2.90
2022-08-21T13:35:58.829Z,6.80
2022-08-21T13:36:58.821Z,3.00
2022-08-21T13:37:58.800Z,4.70
2022-08-21T13:38:58.798Z,3.60
2022-08-21T13:39:58.820Z,2.60
2022-08-21T13:40:58.781Z,3.40
2022-08-21T13:41:58.753Z,4.10
2022-08-21T13:42:58.924Z,2.90
2022-08-21T13:43:58.730Z,2.90
2022-08-21T13:44:59.670Z,2.40
2022-08-21T13:45:58.714Z,4.10
2022-08-21T13:46:58.710Z,3.70
2022-08-21T13:47:58.682Z,3.50
2022-08-21T13:48:58.671Z,3.70
2022-08-21T13:49:59.447Z,5.00
2022-08-21T13:50:58.651Z,3.80
2022-08-21T13:51:58.651Z,3.40
2022-08-21T13:52:58.810Z,3.60
2022-08-21T13:53:58.616Z,5.90
2022-08-21T13:54:58.604Z,3.40
2022-08-21T13:56:00.694Z,4.80
2022-08-21T13:56:58.600Z,4.00
2022-08-21T13:57:58.565Z,3.20
2022-08-21T13:58:58.553Z,2.60
2022-08-21T13:59:58.553Z,3.70
2022-08-21T14:00:58.558Z,2.80
2022-08-21T14:01:58.582Z,4.60
2022-08-21T14:02:58.635Z,5.70
2022-08-21T14:03:58.500Z,3.10
2022-08-21T14:04:58.488Z,4.70
2022-08-21T14:06:00.412Z,3.80
2022-08-21T14:06:58.465Z,2.70
2022-08-21T14:07:58.445Z,3.00
2022-08-21T14:08:58.444Z,4.30
2022-08-21T14:09:58.425Z,2.90
2022-08-21T14:10:58.425Z,3.00
2022-08-21T14:11:58.396Z,4.90
2022-08-21T14:12:58.530Z,3.10
2022-08-21T14:13:58.376Z,5.30
2022-08-21T14:14:58.377Z,4.20
2022-08-21T14:15:58.366Z,3.90
2022-08-21T14:16:58.346Z,5.10
2022-08-21T14:17:58.326Z,3.80
2022-08-21T14:19:01.711Z,4.30
2022-08-21T14:19:59.407Z,3.70
2022-08-21T14:20:58.306Z,5.30
2022-08-21T14:21:58.305Z,4.10
2022-08-21T14:22:58.431Z,4.50
2022-08-21T14:23:58.256Z,3.10
2022-08-21T14:24:58.238Z,4.80
2022-08-21T14:25:58.253Z,4.20
2022-08-21T14:26:58.227Z,4.40
2022-08-21T14:27:58.208Z,3.90
2022-08-21T14:28:58.198Z,3.00
2022-08-21T14:29:58.178Z,3.30
2022-08-21T14:30:58.168Z,4.00
2022-08-21T14:31:58.169Z,3.90
2022-08-21T14:32:58.289Z,1.30
2022-08-21T14:33:58.128Z,5.30
2022-08-21T14:34:59.399Z,3.70
2022-08-21T14:35:58.110Z,3.10
2022-08-21T14:36:58.119Z,4.20
2022-08-21T14:37:58.079Z,4.50
2022-08-21T14:38:58.069Z,4.90
2022-08-21T14:39:58.197Z,6.20
2022-08-21T14:40:58.048Z,2.50
2022-08-21T14:41:58.040Z,3.40
2022-08-21T14:42:58.210Z,4.00
2022-08-21T14:44:05.785Z,4.00
2022-08-21T14:44:59.001Z,3.20
2022-08-21T14:45:57.981Z,4.40
2022-08-21T14:46:58.000Z,3.20
2022-08-21T14:47:57.965Z,3.80
2022-08-21T14:48:57.951Z,3.70
2022-08-21T14:49:57.984Z,3.90
2022-08-21T14:51:00.539Z,3.00
2022-08-21T14:51:58.133Z,1.60
2022-08-21T14:52:58.049Z,3.00
2022-08-21T14:53:57.893Z,2.40
2022-08-21T14:54:57.883Z,2.70
2022-08-21T14:55:57.864Z,3.20
2022-08-21T14:56:57.872Z,3.00
2022-08-21T14:57:57.849Z,2.80
2022-08-21T14:58:57.833Z,4.20
2022-08-21T15:00:01.610Z,4.50
2022-08-21T15:00:57.882Z,3.10
2022-08-21T15:01:57.813Z,5.50
2022-08-21T15:02:58.006Z,3.70
2022-08-21T15:03:57.774Z,2.90
2022-08-21T15:04:57.763Z,2.60
2022-08-21T15:05:57.751Z,3.60
2022-08-21T15:06:57.755Z,2.40
2022-08-21T15:07:57.724Z,4.60
2022-08-21T15:08:57.724Z,3.30
2022-08-21T15:09:57.704Z,4.10
2022-08-21T15:11:11.512Z,3.80
2022-08-21T15:11:58.702Z,5.60
2022-08-21T15:12:57.741Z,3.40
2022-08-21T15:13:57.672Z,3.60
2022-08-21T15:14:57.650Z,4.10
2022-08-21T15:15:57.628Z,4.60
2022-08-21T15:16:57.646Z,2.60
2022-08-21T15:17:57.606Z,3.50
2022-08-21T15:18:57.605Z,2.60
2022-08-21T15:19:57.586Z,2.50
2022-08-21T15:20:57.618Z,4.90
2022-08-21T15:21:57.596Z,2.30
2022-08-21T15:22:57.556Z,2.00
2022-08-21T15:23:57.547Z,3.60
2022-08-21T15:24:57.528Z,2.20
2022-08-21T15:25:57.507Z,2.90
2022-08-21T15:26:57.517Z,2.90
2022-08-21T15:27:57.510Z,4.00
2022-08-21T15:28:57.487Z,3.70
2022-08-21T15:29:57.467Z,2.50
2022-08-21T15:30:57.455Z,2.60
2022-08-21T15:31:57.451Z,2.60
2022-08-21T15:32:57.551Z,2.70
2022-08-21T15:33:57.408Z,3.30
2022-08-21T15:34:57.432Z,4.80
2022-08-21T15:35:57.397Z,3.10
2022-08-21T15:36:57.455Z,4.60
2022-08-21T15:37:57.368Z,2.40
2022-08-21T15:38:57.379Z,4.20
2022-08-21T15:39:57.505Z,3.40
2022-08-21T15:40:57.342Z,3.80
2022-08-21T15:41:57.329Z,2.50
2022-08-21T15:42:57.390Z,2.80
2022-08-21T15:43:57.292Z,2.70
2022-08-21T15:44:57.287Z,3.40
2022-08-21T15:45:57.270Z,4.70
2022-08-21T15:46:57.284Z,3.70
2022-08-21T15:47:57.241Z,4.40
2022-08-21T15:48:59.878Z,5.10
2022-08-21T15:49:57.313Z,3.30
2022-08-21T15:50:57.210Z,5.10
2022-08-21T15:51:57.192Z,4.60
2022-08-21T15:52:57.258Z,3.80
2022-08-21T15:53:57.160Z,2.50
2022-08-21T15:54:57.161Z,4.60
2022-08-21T15:55:57.140Z,3.40
2022-08-21T15:56:57.166Z,2.50
2022-08-21T15:57:59.225Z,5.20
2022-08-21T15:58:57.112Z,4.40
2022-08-21T15:59:57.094Z,3.70
2022-08-21T16:00:57.118Z,3.10
2022-08-21T16:01:57.125Z,2.50
2022-08-21T16:02:57.064Z,3.60
2022-08-21T16:03:57.043Z,4.00
2022-08-21T16:04:57.032Z,5.00
2022-08-21T16:05:57.034Z,6.30
2022-08-21T16:07:03.201Z,2.40
2022-08-21T16:07:57.993Z,2.20
2022-08-21T16:08:56.983Z,4.40
2022-08-21T16:09:56.972Z,3.60
2022-08-21T16:10:56.968Z,6.10
2022-08-21T16:11:56.957Z,4.30
2022-08-21T16:12:56.933Z,4.80
2022-08-21T16:13:57.116Z,3.10
2022-08-21T16:14:56.906Z,4.30
2022-08-21T16:15:56.893Z,2.10
2022-08-21T16:16:56.894Z,2.90
2022-08-21T16:17:56.874Z,3.30
2022-08-21T16:18:56.864Z,2.80
2022-08-21T16:19:56.846Z,3.30
2022-08-21T16:20:56.834Z,3.10
2022-08-21T16:21:56.824Z,2.90
2022-08-21T16:22:56.928Z,4.30
2022-08-21T16:23:56.834Z,4.00
2022-08-21T16:24:56.785Z,3.40
2022-08-21T16:25:56.774Z,3.20
2022-08-21T16:26:57.874Z,4.00
2022-08-21T16:27:59.619Z,6.10
2022-08-21T16:28:56.736Z,1.70
2022-08-21T16:29:56.716Z,4.70
2022-08-21T16:30:56.706Z,6.40
2022-08-21T16:31:56.715Z,1.40
2022-08-21T16:32:56.753Z,2.50
2022-08-21T16:33:57.798Z,4.30
2022-08-21T16:34:56.656Z,3.20
2022-08-21T16:35:56.648Z,3.90
2022-08-21T16:36:56.646Z,3.10
2022-08-21T16:37:56.616Z,2.70
2022-08-21T16:38:56.606Z,3.10
2022-08-21T16:39:56.648Z,2.70
2022-08-21T16:40:56.586Z,1.20
2022-08-21T16:41:56.577Z,3.50
2022-08-21T16:42:56.574Z,2.10
2022-08-21T16:43:56.537Z,4.50
2022-08-21T16:45:03.317Z,3.90
2022-08-21T16:45:56.518Z,4.70
2022-08-21T16:46:56.628Z,2.50
2022-08-21T16:47:56.487Z,3.40
2022-08-21T16:48:56.475Z,4.70
2022-08-21T16:49:56.465Z,4.30
2022-08-21T16:50:56.449Z,2.20
2022-08-21T16:51:56.477Z,3.00
2022-08-21T16:52:56.421Z,3.10
2022-08-21T16:53:56.416Z,3.50
2022-08-21T16:54:56.398Z,4.80
2022-08-21T16:55:56.388Z,3.10
2022-08-21T16:56:56.376Z,3.90
2022-08-21T16:57:56.357Z,4.10
2022-08-21T16:58:56.337Z,4.90
2022-08-21T16:59:56.330Z,2.10
2022-08-21T17:00:56.381Z,4.50
2022-08-21T17:01:56.319Z,2.80
2022-08-21T17:02:56.346Z,3.40
2022-08-21T17:03:56.279Z,2.00
2022-08-21T17:04:56.259Z,2.90
2022-08-21T17:05:56.293Z,2.10
2022-08-21T17:06:56.259Z,6.70
2022-08-21T17:07:56.239Z,1.70
2022-08-21T17:08:56.218Z,3.60
2022-08-21T17:09:56.206Z,2.80
2022-08-21T17:10:56.188Z,4.90
2022-08-21T17:11:56.198Z,2.40
2022-08-21T17:12:56.264Z,2.10
2022-08-21T17:13:56.157Z,2.00
2022-08-21T17:14:56.139Z,4.70
2022-08-21T17:15:56.130Z,4.70
2022-08-21T17:16:56.121Z,6.80
2022-08-21T17:17:56.099Z,3.00
2022-08-21T17:18:56.080Z,3.10
2022-08-21T17:19:56.078Z,2.20
2022-08-21T17:20:56.060Z,3.60
2022-08-21T17:21:56.068Z,1.90
2022-08-21T17:22:56.064Z,3.10
2022-08-21T17:23:56.030Z,4.20
2022-08-21T17:24:56.000Z,2.70
2022-08-21T17:25:55.999Z,3.10
2022-08-21T17:26:56.004Z,2.10
2022-08-21T17:27:55.980Z,4.20
2022-08-21T17:28:55.951Z,3.00
2022-08-21T17:29:55.941Z,2.40
2022-08-21T17:30:55.931Z,3.70
2022-08-21T17:31:55.930Z,3.80
2022-08-21T17:32:55.938Z,4.20
2022-08-21T17:33:56.518Z,4.20
2022-08-21T17:34:55.879Z,3.20
2022-08-21T17:35:55.870Z,2.00
2022-08-21T17:36:55.860Z,4.00
2022-08-21T17:37:55.850Z,5.00
2022-08-21T17:38:55.830Z,4.00
2022-08-21T17:39:55.868Z,4.10
2022-08-21T17:40:55.801Z,3.20